Kearns, Utah
Current Conditions -  °F | °C
As of 9:53 PM on Sunday 19 Oct 2014 (Local Time) from KSLC Reporting Station
Clear Clear  
Wind Chill: 13°   Ceiling: Unl
Heat Index: 13°   Visibility: 10mi
Dew Point:   Wind: 3mph
Humidity: 72%   Direction: 140°SE
Pressure: 30.04"   Gusts: NA
Location:  40.65°N, 111.96°W
Report Text: KSLC 200353Z 14003KT 10SM CLR 13/08 A3004 RMK AO2 SLP146 T01280078
Loading
Personal Weather Stations






























Interactive Weather Map
Tropical Storm Tracking
New forecast layout! Learn more

10-Day Weather Forecast

Advertisements
Track Severe Weather on mobile